Time;durP1;ratioP1;P1;durP2;ratioP2;P2;SDS_P1;SDS_P2;PMS_P1;PMS_P2;Temp;Humidity;BMP_temperature;BMP_pressure;BME280_temperature;BME280_humidity;BME280_pressure;Samples;Min_cycle;Max_cycle;Signal;HPM_P1;HPM_P2
2024/01/01 00:00:16;;;;;;;4.28;3.13;;;-9.90;87.70;;;;;;5014799;28;20025;-82
2024/01/01 00:02:42;;;;;;;6.20;3.47;;;-9.90;88.10;;;;;;4997075;28;20494;-83
2024/01/01 00:05:09;;;;;;;3.40;3.03;;;-9.90;88.40;;;;;;5014485;28;20034;-82
2024/01/01 00:07:35;;;;;;;2.80;2.10;;;-9.90;88.80;;;;;;4997044;28;20026;-84
2024/01/01 00:10:01;;;;;;;16.65;2.88;;;-9.90;89.20;;;;;;5015096;28;20117;-82
2024/01/01 00:12:27;;;;;;;5.15;2.63;;;-9.90;89.60;;;;;;5037475;28;20084;-82
2024/01/01 00:14:53;;;;;;;6.50;3.63;;;-9.90;89.70;;;;;;5016499;28;20048;-82
2024/01/01 00:17:19;;;;;;;7.85;2.50;;;-9.90;89.90;;;;;;5034118;28;20724;-84
2024/01/01 00:19:45;;;;;;;3.90;2.25;;;-9.80;90.10;;;;;;5034232;28;20024;-83
2024/01/01 00:22:10;;;;;;;4.90;3.22;;;-9.80;90.00;;;;;;5016120;28;20021;-82
2024/01/01 00:24:36;;;;;;;4.60;2.83;;;-9.70;90.00;;;;;;5034193;28;20025;-83
2024/01/01 00:27:02;;;;;;;7.45;3.88;;;-9.80;90.00;;;;;;5033136;28;20029;-82
2024/01/01 00:29:28;;;;;;;6.47;3.63;;;-9.80;90.20;;;;;;5013675;28;20049;-82
2024/01/01 00:31:54;;;;;;;2.88;2.58;;;-9.90;90.30;;;;;;5014905;28;20065;-82
2024/01/01 00:34:21;;;;;;;4.40;2.60;;;-9.90;90.30;;;;;;5031156;28;20450;-82
2024/01/01 00:36:50;;;;;;;4.70;2.88;;;-9.90;90.40;;;;;;5035356;28;20079;-82
2024/01/01 00:39:16;;;;;;;4.57;3.03;;;-10.00;90.40;;;;;;5017410;28;20041;-82
2024/01/01 00:41:45;;;;;;;5.13;2.95;;;-10.00;90.50;;;;;;5025831;28;20018;-80
2024/01/01 00:44:11;;;;;;;3.70;2.65;;;-10.10;90.70;;;;;;4999734;28;20030;-84
2024/01/01 00:46:37;;;;;;;5.50;3.50;;;-10.10;90.90;;;;;;5032095;28;20021;-83
2024/01/01 00:49:03;;;;;;;4.65;2.53;;;-10.10;91.00;;;;;;5034252;28;20024;-82
2024/01/01 00:51:28;;;;;;;6.03;3.33;;;-10.10;91.20;;;;;;5033662;28;20101;-81
2024/01/01 00:53:54;;;;;;;3.90;2.42;;;-10.10;91.20;;;;;;5017655;28;20037;-83
2024/01/01 00:56:20;;;;;;;5.50;3.25;;;-10.10;91.20;;;;;;5032732;28;20029;-83
2024/01/01 00:58:46;;;;;;;3.42;2.28;;;-10.20;91.30;;;;;;5040840;28;20034;-83
2024/01/01 01:01:12;;;;;;;3.25;2.25;;;-10.20;91.40;;;;;;5017004;28;20479;-83
2024/01/01 01:03:37;;;;;;;7.90;3.60;;;-10.20;91.50;;;;;;5034270;28;20021;-82
2024/01/01 01:06:05;;;;;;;10.05;2.70;;;-10.20;91.50;;;;;;5034143;28;20509;-83
2024/01/01 01:08:31;;;;;;;4.65;2.72;;;-10.20;91.60;;;;;;5033816;28;20100;-81
2024/01/01 01:10:56;;;;;;;4.47;2.75;;;-10.20;91.80;;;;;;5033581;28;20068;-83
2024/01/01 01:13:22;;;;;;;3.58;2.22;;;-10.20;91.80;;;;;;5032855;28;20507;-82
2024/01/01 01:15:48;;;;;;;3.28;2.63;;;-10.20;91.80;;;;;;5033005;28;20383;-82
2024/01/01 01:18:14;;;;;;;5.15;3.60;;;-10.20;91.90;;;;;;5015547;28;20034;-82
2024/01/01 01:20:40;;;;;;;4.28;2.85;;;-10.20;92.00;;;;;;5015374;28;20109;-84
2024/01/01 01:23:06;;;;;;;5.55;2.70;;;-10.20;92.10;;;;;;5015563;28;20382;-83
2024/01/01 01:25:31;;;;;;;3.78;2.45;;;-10.20;92.20;;;;;;5033086;28;20022;-83
2024/01/01 01:27:58;;;;;;;4.43;2.30;;;-10.10;92.30;;;;;;5033997;28;20043;-82
2024/01/01 01:30:24;;;;;;;4.30;2.58;;;-10.10;92.40;;;;;;5034134;28;20017;-83
2024/01/01 01:32:50;;;;;;;4.25;3.15;;;-10.10;92.50;;;;;;5016227;28;20030;-81
2024/01/01 01:35:15;;;;;;;2.70;2.17;;;-10.10;92.20;;;;;;5034438;28;20037;-82
2024/01/01 01:37:43;;;;;;;3.90;2.75;;;-10.10;92.50;;;;;;5033895;28;20031;-81
2024/01/01 01:40:09;;;;;;;4.68;3.50;;;-10.20;92.50;;;;;;5040899;28;20026;-82
2024/01/01 01:42:35;;;;;;;4.97;2.25;;;-10.20;92.20;;;;;;5046212;28;20077;-82
2024/01/01 01:45:01;;;;;;;5.80;2.63;;;-10.10;92.40;;;;;;5036024;28;20030;-82
2024/01/01 01:47:28;;;;;;;3.10;2.47;;;-10.20;92.30;;;;;;5033252;28;20018;-83
2024/01/01 01:49:55;;;;;;;6.90;3.58;;;-10.20;92.30;;;;;;5032799;28;20032;-82
2024/01/01 01:52:21;;;;;;;2.70;2.35;;;-10.20;92.40;;;;;;5036057;28;20026;-83
2024/01/01 01:54:49;;;;;;;3.15;1.75;;;-10.20;92.00;;;;;;5040682;28;20113;-82
2024/01/01 01:57:15;;;;;;;4.03;2.75;;;-10.30;91.90;;;;;;5038263;28;20075;-82
2024/01/01 01:59:43;;;;;;;3.72;2.67;;;-10.30;92.00;;;;;;5037184;28;20486;-83
2024/01/01 02:02:12;;;;;;;5.93;2.83;;;-10.30;92.10;;;;;;5036999;28;20069;-81
2024/01/01 02:04:38;;;;;;;4.07;2.75;;;-10.30;92.00;;;;;;5037353;28;20047;-83
2024/01/01 02:07:04;;;;;;;5.43;2.60;;;-10.30;92.00;;;;;;5036519;28;20052;-82
2024/01/01 02:09:31;;;;;;;3.10;2.20;;;-10.30;91.90;;;;;;5036865;28;20024;-84
2024/01/01 02:11:57;;;;;;;4.63;3.25;;;-10.30;91.90;;;;;;5017594;28;20081;-83
2024/01/01 02:14:26;;;;;;;4.85;3.03;;;-10.40;92.10;;;;;;5035332;28;20041;-82
2024/01/01 02:16:51;;;;;;;1.70;1.60;;;-10.40;92.10;;;;;;5035652;28;20383;-82
2024/01/01 02:19:24;;;;;;;3.25;2.03;;;-10.40;92.20;;;;;;5036893;28;20026;-83
2024/01/01 02:21:52;;;;;;;7.38;2.00;;;-10.40;92.10;;;;;;5052320;28;20080;-82
2024/01/01 02:24:21;;;;;;;5.60;3.08;;;-10.50;92.10;;;;;;5056029;28;20014;-83
2024/01/01 02:26:47;;;;;;;4.20;1.95;;;-10.50;92.00;;;;;;5037428;28;20030;-82
2024/01/01 02:29:14;;;;;;;3.00;2.10;;;-10.50;92.10;;;;;;5017816;28;20409;-81
2024/01/01 02:31:40;;;;;;;6.97;2.05;;;-10.50;92.20;;;;;;5018165;28;20032;-83
2024/01/01 02:34:06;;;;;;;4.97;2.42;;;-10.50;92.30;;;;;;5034892;28;20096;-81
2024/01/01 02:36:36;;;;;;;4.47;2.42;;;-10.50;92.20;;;;;;5038513;28;20017;-81
2024/01/01 02:39:03;;;;;;;3.72;2.35;;;-10.60;92.20;;;;;;5035656;28;20028;-83
2024/01/01 02:41:34;;;;;;;5.43;2.90;;;-10.60;92.10;;;;;;5035691;28;20081;-83
2024/01/01 02:44:00;;;;;;;5.22;2.47;;;-10.60;92.00;;;;;;5035310;28;20092;-83
2024/01/01 02:46:26;;;;;;;3.10;2.25;;;-10.60;91.90;;;;;;5035905;28;20017;-81
2024/01/01 02:48:52;;;;;;;4.18;1.33;;;-10.60;91.60;;;;;;5018495;28;20559;-82
2024/01/01 02:51:17;;;;;;;3.63;2.72;;;-10.70;91.60;;;;;;5018635;28;20072;-83
2024/01/01 02:53:43;;;;;;;5.70;2.50;;;-10.70;91.60;;;;;;5034884;28;20025;-81
2024/01/01 02:56:19;;;;;;;3.85;2.63;;;-10.80;91.50;;;;;;5035712;28;20489;-83
2024/01/01 02:58:46;;;;;;;4.38;2.28;;;-10.80;91.60;;;;;;5035122;28;20034;-82
2024/01/01 03:01:19;;;;;;;4.47;2.50;;;-10.80;91.40;;;;;;5017846;28;20025;-84
2024/01/01 03:03:45;;;;;;;4.68;2.45;;;-10.80;91.30;;;;;;5030684;28;20562;-83
2024/01/01 03:06:11;;;;;;;4.18;2.47;;;-10.90;91.40;;;;;;5025458;28;20021;-82
2024/01/01 03:08:37;;;;;;;2.30;2.10;;;-10.90;91.60;;;;;;5034406;28;20021;-81
2024/01/01 03:11:06;;;;;;;2.87;2.10;;;-10.90;91.60;;;;;;4988509;28;1334325;-82
2024/01/01 03:13:32;;;;;;;3.13;2.17;;;-10.90;91.60;;;;;;5035508;28;20448;-82
2024/01/01 03:15:58;;;;;;;3.75;2.83;;;-10.90;91.70;;;;;;5035716;28;20120;-82
2024/01/01 03:18:24;;;;;;;4.68;2.78;;;-10.90;91.70;;;;;;5035929;28;20038;-82
2024/01/01 03:20:50;;;;;;;2.58;1.80;;;-10.90;91.60;;;;;;5017204;28;20030;-82
2024/01/01 03:23:16;;;;;;;3.15;2.65;;;-10.90;91.60;;;;;;5035320;28;20033;-82
2024/01/01 03:25:42;;;;;;;5.18;2.00;;;-10.90;91.60;;;;;;5017457;28;20498;-82
2024/01/01 03:28:07;;;;;;;2.45;1.65;;;-11.00;91.70;;;;;;5035297;28;20026;-82
2024/01/01 03:30:33;;;;;;;5.22;2.67;;;-11.00;91.80;;;;;;5034717;28;20017;-83
2024/01/01 03:32:59;;;;;;;4.22;2.70;;;-11.00;91.70;;;;;;5035525;28;20029;-82
2024/01/01 03:35:25;;;;;;;1.67;1.50;;;-11.00;91.80;;;;;;5035725;28;20034;-81
2024/01/01 03:37:51;;;;;;;4.35;2.85;;;-11.00;91.80;;;;;;5035171;28;20018;-83
2024/01/01 03:40:16;;;;;;;4.30;2.30;;;-11.00;91.90;;;;;;5035460;28;20061;-82
2024/01/01 03:42:42;;;;;;;3.63;2.58;;;-10.90;92.00;;;;;;5021307;28;20021;-81
2024/01/01 03:45:09;;;;;;;3.95;2.22;;;-10.90;92.00;;;;;;5017341;28;20029;-81
2024/01/01 03:47:35;;;;;;;2.88;2.17;;;-11.00;92.00;;;;;;5034722;28;20018;-81
2024/01/01 03:50:00;;;;;;;4.28;3.00;;;-11.00;92.00;;;;;;5033675;28;20057;-81
2024/01/01 03:52:26;;;;;;;6.25;2.08;;;-11.00;92.00;;;;;;5041235;28;20017;-82
2024/01/01 03:54:52;;;;;;;2.78;2.20;;;-11.00;92.00;;;;;;5021220;28;20032;-82
2024/01/01 03:57:19;;;;;;;2.25;1.90;;;-11.00;92.10;;;;;;5017513;28;20093;-82
2024/01/01 03:59:45;;;;;;;6.85;3.15;;;-11.00;92.10;;;;;;5035295;28;20068;-82
2024/01/01 04:02:11;;;;;;;4.35;2.85;;;-11.00;92.00;;;;;;5025071;28;20022;-82
2024/01/01 04:04:37;;;;;;;3.05;2.42;;;-11.00;92.10;;;;;;5038759;28;20040;-82
2024/01/01 04:07:03;;;;;;;4.90;2.00;;;-11.10;92.10;;;;;;5035396;28;20025;-82
2024/01/01 04:09:29;;;;;;;4.30;3.05;;;-11.10;92.10;;;;;;5036115;28;20168;-83
2024/01/01 04:11:54;;;;;;;4.65;3.03;;;-11.10;92.20;;;;;;5035070;28;20463;-82
2024/01/01 04:14:20;;;;;;;2.83;2.55;;;-11.10;92.30;;;;;;5032046;28;20418;-82
2024/01/01 04:16:46;;;;;;;2.47;1.77;;;-11.00;92.30;;;;;;5035761;28;20482;-84
2024/01/01 04:19:12;;;;;;;3.50;2.42;;;-11.10;92.30;;;;;;5016729;28;20051;-81
2024/01/01 04:21:39;;;;;;;2.42;1.98;;;-11.10;92.40;;;;;;5034595;28;20025;-81
2024/01/01 04:24:09;;;;;;;6.03;2.83;;;-11.00;92.50;;;;;;5035562;28;20038;-82
2024/01/01 04:26:37;;;;;;;2.80;2.20;;;-11.00;92.50;;;;;;5019740;28;20029;-82
2024/01/01 04:29:02;;;;;;;5.65;2.67;;;-11.00;92.50;;;;;;5041460;28;20025;-82
2024/01/01 04:31:28;;;;;;;5.93;3.25;;;-11.00;92.60;;;;;;5021534;28;20021;-82
2024/01/01 04:33:54;;;;;;;3.78;2.90;;;-11.00;92.70;;;;;;5034687;28;20037;-82
2024/01/01 04:36:21;;;;;;;3.80;2.57;;;-11.00;92.70;;;;;;5035042;28;20013;-82
2024/01/01 04:38:47;;;;;;;3.90;2.77;;;-10.90;92.80;;;;;;5034695;28;20119;-82
2024/01/01 04:41:13;;;;;;;4.28;3.20;;;-10.90;92.80;;;;;;5016226;28;20486;-80
2024/01/01 04:43:40;;;;;;;8.40;3.17;;;-10.90;92.80;;;;;;5033943;28;20037;-81
2024/01/01 04:46:06;;;;;;;4.53;2.78;;;-10.90;92.90;;;;;;5033605;28;20029;-81
2024/01/01 04:48:33;;;;;;;2.85;2.58;;;-10.80;93.00;;;;;;5033465;28;20041;-82
2024/01/01 04:50:59;;;;;;;4.10;2.78;;;-10.80;92.80;;;;;;5033538;28;20052;-82
2024/01/01 04:53:25;;;;;;;4.20;2.63;;;-10.80;92.90;;;;;;5033341;28;20029;-82
2024/01/01 04:55:51;;;;;;;5.15;2.58;;;-10.70;92.90;;;;;;5033268;28;20088;-81
2024/01/01 04:58:16;;;;;;;3.92;2.47;;;-10.70;92.90;;;;;;5033260;28;20029;-82
2024/01/01 05:00:42;;;;;;;4.65;2.47;;;-10.60;93.00;;;;;;5033324;28;20092;-83
2024/01/01 05:03:08;;;;;;;3.20;2.55;;;-10.60;92.90;;;;;;5033428;28;20033;-81
2024/01/01 05:05:34;;;;;;;4.28;3.22;;;-10.50;92.80;;;;;;5016006;28;20024;-81
2024/01/01 05:07:59;;;;;;;2.95;2.15;;;-10.60;92.80;;;;;;5033990;28;20029;-83
2024/01/01 05:10:25;;;;;;;3.67;2.40;;;-10.50;92.90;;;;;;4998494;28;20018;-82
2024/01/01 05:12:52;;;;;;;5.55;3.13;;;-10.50;93.00;;;;;;5019969;28;20099;-81
2024/01/01 05:15:18;;;;;;;5.22;2.67;;;-10.50;93.00;;;;;;5015920;28;20402;-82
2024/01/01 05:17:44;;;;;;;7.25;3.88;;;-10.50;93.00;;;;;;5029645;28;20030;-81
2024/01/01 05:20:10;;;;;;;3.90;2.88;;;-10.50;93.00;;;;;;5038719;28;20025;-82
2024/01/01 05:22:36;;;;;;;4.72;2.63;;;-10.40;92.90;;;;;;5032945;28;20092;-82
2024/01/01 05:25:02;;;;;;;5.75;3.45;;;-10.40;92.90;;;;;;5021921;28;20120;-80
2024/01/01 05:27:28;;;;;;;6.45;3.95;;;-10.40;92.80;;;;;;5030659;28;20436;-82
2024/01/01 05:29:54;;;;;;;6.93;2.30;;;-10.50;92.60;;;;;;5032985;28;20075;-82
2024/01/01 05:32:20;;;;;;;3.75;2.70;;;-10.50;92.80;;;;;;5033179;28;20022;-82
2024/01/01 05:34:46;;;;;;;2.70;2.28;;;-10.50;92.90;;;;;;5033047;28;20040;-80
2024/01/01 05:37:12;;;;;;;6.32;3.28;;;-10.50;93.00;;;;;;5015914;28;20022;-82
2024/01/01 05:39:38;;;;;;;7.35;2.88;;;-10.50;92.90;;;;;;5038018;28;20033;-83
2024/01/01 05:42:04;;;;;;;4.82;2.78;;;-10.50;93.10;;;;;;5049657;28;20022;-82
2024/01/01 05:44:30;;;;;;;5.67;3.80;;;-10.50;93.30;;;;;;5036501;28;20433;-81
2024/01/01 05:46:56;;;;;;;4.97;2.80;;;-10.50;93.20;;;;;;5034067;28;20014;-81
2024/01/01 05:49:23;;;;;;;3.13;2.22;;;-10.50;93.20;;;;;;5032926;28;20372;-82
2024/01/01 05:51:49;;;;;;;4.63;2.97;;;-10.40;93.20;;;;;;5035182;28;20026;-83
2024/01/01 05:54:15;;;;;;;4.72;3.08;;;-10.50;93.10;;;;;;5034019;28;20026;-81
2024/01/01 05:56:42;;;;;;;4.93;2.40;;;-10.50;93.00;;;;;;5032968;28;20075;-83
2024/01/01 05:59:08;;;;;;;4.90;2.77;;;-10.40;93.20;;;;;;5032856;28;20521;-82
2024/01/01 06:01:34;;;;;;;4.43;3.38;;;-10.50;93.00;;;;;;5032758;28;20033;-81
2024/01/01 06:03:59;;;;;;;2.83;2.38;;;-10.50;93.00;;;;;;5014884;28;20087;-81
2024/01/01 06:06:25;;;;;;;6.20;3.30;;;-10.40;93.10;;;;;;5015500;28;20036;-80
2024/01/01 06:08:51;;;;;;;6.85;3.67;;;-10.40;93.20;;;;;;5036310;28;20112;-81
2024/01/01 06:11:17;;;;;;;6.03;3.30;;;-10.40;93.30;;;;;;5036795;28;20065;-82
2024/01/01 06:13:46;;;;;;;7.07;3.85;;;-10.40;93.30;;;;;;5016702;28;20497;-81
2024/01/01 06:16:15;;;;;;;5.47;4.10;;;-10.40;93.40;;;;;;5032541;28;20072;-82
2024/01/01 06:18:42;;;;;;;3.00;2.63;;;-10.40;93.50;;;;;;5032554;28;20026;-83
2024/01/01 06:21:08;;;;;;;6.20;3.17;;;-10.40;93.40;;;;;;5033187;28;20022;-82
2024/01/01 06:23:35;;;;;;;4.13;2.88;;;-10.40;93.50;;;;;;5032621;28;20136;-81
2024/01/01 06:26:01;;;;;;;5.93;3.28;;;-10.50;93.50;;;;;;5032957;28;20018;-81
2024/01/01 06:28:28;;;;;;;4.47;3.05;;;-10.40;93.70;;;;;;5032721;28;20029;-81
2024/01/01 06:30:53;;;;;;;5.93;4.40;;;-10.40;93.80;;;;;;5032663;28;20017;-80
2024/01/01 06:33:19;;;;;;;6.25;3.20;;;-10.40;93.80;;;;;;5015086;28;20271;-82
2024/01/01 06:35:45;;;;;;;3.75;2.80;;;-10.40;93.90;;;;;;5001045;28;20026;-81
2024/01/01 06:38:11;;;;;;;7.85;3.55;;;-10.30;94.00;;;;;;5017914;28;20075;-82
2024/01/01 06:40:37;;;;;;;4.07;2.53;;;-10.30;93.90;;;;;;5037814;28;20018;-81
2024/01/01 06:43:03;;;;;;;5.40;3.93;;;-10.30;93.80;;;;;;5017476;28;20057;-80
2024/01/01 06:45:29;;;;;;;6.80;3.58;;;-10.30;93.80;;;;;;5014913;28;20025;-82
2024/01/01 06:47:55;;;;;;;5.55;3.50;;;-10.30;93.80;;;;;;5049020;28;20494;-82
2024/01/01 06:50:22;;;;;;;4.00;2.45;;;-10.30;93.90;;;;;;5037203;28;20564;-82
2024/01/01 06:52:47;;;;;;;3.70;3.05;;;-10.30;94.00;;;;;;5036971;28;20022;-81
2024/01/01 06:55:16;;;;;;;7.45;4.75;;;-10.30;94.00;;;;;;5036928;28;20029;-84
2024/01/01 06:57:41;;;;;;;8.95;4.40;;;-10.20;94.10;;;;;;5036103;28;20100;-83
2024/01/01 07:00:08;;;;;;;8.57;3.28;;;-10.20;94.20;;;;;;5035876;28;20446;-81
2024/01/01 07:02:33;;;;;;;12.40;3.77;;;-10.20;94.30;;;;;;5035507;28;20482;-81
2024/01/01 07:05:00;;;;;;;8.02;3.83;;;-10.20;94.30;;;;;;5035755;28;20271;-82
2024/01/01 07:07:26;;;;;;;6.85;3.10;;;-10.20;94.40;;;;;;5017552;28;20017;-82
2024/01/01 07:09:51;;;;;;;7.28;4.00;;;-10.20;94.50;;;;;;5035958;28;20056;-80
2024/01/01 07:12:19;;;;;;;4.20;2.63;;;-10.20;94.50;;;;;;5035081;28;20471;-82
2024/01/01 07:14:49;;;;;;;3.95;2.40;;;-10.20;94.50;;;;;;5024649;28;20069;-81
2024/01/01 07:17:16;;;;;;;4.30;3.42;;;-10.20;94.90;;;;;;5018904;28;20079;-82
2024/01/01 07:19:45;;;;;;;2.42;1.85;;;-10.10;94.70;;;;;;5035698;28;20018;-82
2024/01/01 07:22:11;;;;;;;5.32;3.45;;;-10.10;94.30;;;;;;5035532;28;20056;-82
2024/01/01 07:24:38;;;;;;;5.13;3.07;;;-10.20;94.20;;;;;;5053776;28;20047;-82
2024/01/01 07:27:04;;;;;;;6.27;2.63;;;-10.20;94.00;;;;;;5040077;28;20498;-82
2024/01/01 07:29:30;;;;;;;4.55;3.47;;;-10.30;93.40;;;;;;5036486;28;20025;-82
2024/01/01 07:31:56;;;;;;;4.25;2.80;;;-10.40;93.20;;;;;;5036189;28;20478;-81
2024/01/01 07:34:24;;;;;;;4.13;2.75;;;-10.50;93.30;;;;;;5035620;28;20021;-81
2024/01/01 07:36:50;;;;;;;5.18;3.20;;;-10.50;93.30;;;;;;5035201;28;20072;-81
2024/01/01 07:39:19;;;;;;;4.03;2.30;;;-10.50;93.50;;;;;;5034790;28;20025;-81
2024/01/01 07:41:48;;;;;;;4.40;2.95;;;-10.50;93.40;;;;;;5034885;28;20018;-81
2024/01/01 07:44:15;;;;;;;4.88;3.08;;;-10.40;93.20;;;;;;5034753;28;20103;-81
2024/01/01 07:46:47;;;;;;;6.57;3.40;;;-10.40;93.40;;;;;;5034773;28;20052;-82
2024/01/01 07:49:13;;;;;;;9.30;4.45;;;-10.30;93.60;;;;;;5019427;28;20037;-83
2024/01/01 07:51:40;;;;;;;7.68;4.22;;;-10.20;93.80;;;;;;5017192;28;20060;-82
2024/01/01 07:54:06;;;;;;;6.07;3.35;;;-10.10;93.50;;;;;;5034980;28;20022;-82
2024/01/01 07:56:32;;;;;;;6.00;3.30;;;-10.20;93.30;;;;;;5035810;28;20470;-83
2024/01/01 07:58:58;;;;;;;9.38;4.07;;;-10.20;93.30;;;;;;5022852;28;20018;-82
2024/01/01 08:01:26;;;;;;;3.45;2.38;;;-10.20;93.30;;;;;;5035257;28;20036;-82
2024/01/01 08:03:52;;;;;;;4.35;2.97;;;-10.20;93.10;;;;;;5026978;28;20044;-82
2024/01/01 08:06:18;;;;;;;5.50;3.15;;;-10.30;93.10;;;;;;5023776;28;20021;-83
2024/01/01 08:08:44;;;;;;;2.97;1.90;;;-10.30;93.30;;;;;;5018823;28;20025;-81
2024/01/01 08:11:09;;;;;;;5.15;2.70;;;-10.20;93.60;;;;;;5034781;28;20041;-82
2024/01/01 08:13:36;;;;;;;3.22;2.72;;;-10.00;93.60;;;;;;5035282;28;20053;-82
2024/01/01 08:16:02;;;;;;;6.53;3.40;;;-9.80;93.30;;;;;;5036472;28;20387;-83
2024/01/01 08:18:28;;;;;;;3.38;2.15;;;-9.40;92.80;;;;;;5034984;28;20536;-81
2024/01/01 08:20:54;;;;;;;3.38;2.53;;;-9.20;92.40;;;;;;5033977;28;20030;-82
2024/01/01 08:23:20;;;;;;;3.33;2.53;;;-8.90;92.10;;;;;;5034156;28;20095;-81
2024/01/01 08:25:46;;;;;;;5.13;3.42;;;-8.70;91.80;;;;;;5016290;28;20025;-82
2024/01/01 08:28:12;;;;;;;4.43;2.63;;;-8.70;91.20;;;;;;5034267;28;20395;-82
2024/01/01 08:30:43;;;;;;;4.13;3.03;;;-8.60;91.20;;;;;;5034267;28;20136;-85
2024/01/01 08:33:09;;;;;;;3.10;2.67;;;-8.60;90.80;;;;;;5025815;28;20037;-83
2024/01/01 08:35:35;;;;;;;5.40;3.75;;;-8.70;90.70;;;;;;5029101;28;20028;-81
2024/01/01 08:38:01;;;;;;;5.25;2.70;;;-8.70;90.60;;;;;;5034343;28;20037;-81
2024/01/01 08:40:27;;;;;;;5.85;3.00;;;-8.60;90.90;;;;;;5034101;28;20037;-80
2024/01/01 08:42:53;;;;;;;4.38;2.63;;;-8.50;90.90;;;;;;5035300;28;20247;-81
2024/01/01 08:45:19;;;;;;;3.65;2.35;;;-8.60;90.60;;;;;;5017028;28;20064;-82
2024/01/01 08:47:46;;;;;;;4.60;3.45;;;-8.70;90.60;;;;;;5014802;28;20029;-83
2024/01/01 08:50:13;;;;;;;3.22;2.55;;;-8.80;90.60;;;;;;5022692;28;20087;-82
2024/01/01 08:52:39;;;;;;;;;;;-8.90;90.60;;;;;;5034306;28;20033;-81
2024/01/01 08:55:05;;;;;;;3.95;2.70;;;-9.00;90.60;;;;;;5034020;28;20004;-83
2024/01/01 08:57:31;;;;;;;2.50;1.88;;;-9.20;90.60;;;;;;5000994;28;20049;-82
2024/01/01 08:59:57;;;;;;;4.30;2.60;;;-9.30;90.90;;;;;;5029600;28;20017;-82
2024/01/01 09:02:23;;;;;;;7.55;4.88;;;-9.40;91.00;;;;;;5034726;28;20017;-81
2024/01/01 09:04:49;;;;;;;4.45;3.08;;;-9.40;91.10;;;;;;5045293;28;20040;-82
2024/01/01 09:07:14;;;;;;;7.20;3.50;;;-9.50;91.10;;;;;;5051715;28;20112;-82
2024/01/01 09:09:40;;;;;;;4.78;3.17;;;-9.50;91.30;;;;;;5036103;28;20033;-82
2024/01/01 09:12:07;;;;;;;3.55;2.42;;;-9.50;91.30;;;;;;5031980;28;20046;-82
2024/01/01 09:14:35;;;;;;;5.57;2.55;;;-9.60;91.10;;;;;;5024311;28;20067;-82
2024/01/01 09:17:02;;;;;;;3.40;2.08;;;-9.60;91.20;;;;;;5034943;28;20033;-82
2024/01/01 09:19:28;;;;;;;5.47;4.00;;;-9.60;91.20;;;;;;5034403;28;20014;-81
2024/01/01 09:21:54;;;;;;;4.13;2.85;;;-9.50;91.30;;;;;;5017714;28;20056;-84
2024/01/01 09:24:19;;;;;;;4.72;3.00;;;-9.40;91.40;;;;;;5030086;28;20499;-84
2024/01/01 09:26:47;;;;;;;5.63;3.15;;;-9.30;91.50;;;;;;5026823;28;20071;-81
2024/01/01 09:29:12;;;;;;;;;;;-9.10;91.50;;;;;;5023131;28;20126;-81
2024/01/01 09:31:38;;;;;;;5.10;2.80;;;-9.00;91.50;;;;;;5041924;28;19905;-82
2024/01/01 09:34:06;;;;;;;7.97;3.45;;;-9.00;91.10;;;;;;5044693;28;20079;-82
2024/01/01 09:36:32;;;;;;;6.15;3.63;;;-8.90;91.00;;;;;;5045692;28;20076;-82
2024/01/01 09:38:58;;;;;;;6.82;4.13;;;-9.00;90.80;;;;;;5031611;28;20022;-81
2024/01/01 09:41:25;;;;;;;5.28;3.40;;;-8.90;91.00;;;;;;5049276;28;20018;-82
2024/01/01 09:43:55;;;;;;;4.78;3.20;;;-8.80;90.80;;;;;;5041254;28;20125;-80
2024/01/01 09:46:23;;;;;;;7.10;3.85;;;-8.90;90.80;;;;;;5034218;28;20105;-82
2024/01/01 09:48:49;;;;;;;4.00;3.33;;;-9.10;90.90;;;;;;5034066;28;20378;-81
2024/01/01 09:51:15;;;;;;;6.30;3.83;;;-9.00;91.00;;;;;;5015269;28;20017;-82
2024/01/01 09:53:43;;;;;;;7.10;4.30;;;-9.00;91.10;;;;;;5034178;28;20020;-81
2024/01/01 09:56:09;;;;;;;5.88;3.90;;;-8.90;91.20;;;;;;5033528;28;20096;-82
2024/01/01 09:58:41;;;;;;;4.93;3.13;;;-8.80;91.10;;;;;;5034063;28;20014;-84
2024/01/01 10:01:19;;;;;;;5.45;3.35;;;-8.70;90.80;;;;;;5033259;28;20108;-81
2024/01/01 10:04:03;;;;;;;6.68;3.70;;;-8.70;90.80;;;;;;5033059;28;20041;-82
2024/01/01 10:06:31;;;;;;;7.43;3.47;;;-8.60;90.80;;;;;;5034023;28;20025;-81
2024/01/01 10:09:10;;;;;;;8.10;3.50;;;-8.60;90.40;;;;;;5021624;28;20037;-82
2024/01/01 10:11:42;;;;;;;5.70;3.03;;;-8.70;90.20;;;;;;5016818;28;20502;-84
2024/01/01 10:14:09;;;;;;;4.88;3.70;;;-8.80;90.10;;;;;;5019725;28;20027;-81
2024/01/01 10:16:38;;;;;;;10.52;7.75;;;-8.90;90.00;;;;;;5037444;28;20095;-82
2024/01/01 10:19:04;;;;;;;7.93;4.47;;;-9.00;90.10;;;;;;5037158;28;20060;-83
2024/01/01 10:21:41;;;;;;;5.05;3.10;;;-9.00;90.20;;;;;;5037282;28;20488;-83
2024/01/01 10:24:15;;;;;;;6.15;3.42;;;-8.90;90.20;;;;;;5036982;28;20028;-82
2024/01/01 10:26:48;;;;;;;5.95;4.00;;;-9.00;90.10;;;;;;5038374;28;20052;-81
2024/01/01 10:29:16;;;;;;;5.85;3.95;;;-8.90;90.20;;;;;;5014887;28;20029;-83
2024/01/01 10:31:46;;;;;;;8.90;4.68;;;-8.80;90.50;;;;;;5027119;28;20024;-83
2024/01/01 10:34:15;;;;;;;5.63;3.13;;;-8.70;90.50;;;;;;5036758;28;20451;-82
2024/01/01 10:36:42;;;;;;;7.07;4.15;;;-8.80;90.00;;;;;;5027758;28;20022;-82
2024/01/01 10:39:09;;;;;;;6.88;4.05;;;-8.90;90.00;;;;;;5018961;28;20460;-80
2024/01/01 10:41:37;;;;;;;6.68;4.35;;;-8.90;90.20;;;;;;5036974;28;20039;-82
2024/01/01 10:44:04;;;;;;;6.05;3.70;;;-8.90;90.20;;;;;;5037826;28;20514;-82
2024/01/01 10:46:39;;;;;;;5.18;2.67;;;-8.90;90.10;;;;;;5024333;28;20017;-83
2024/01/01 10:49:08;;;;;;;5.13;3.05;;;-8.90;90.20;;;;;;5046260;28;20029;-83
2024/01/01 10:51:58;;;;;;;11.25;5.55;;;-8.90;90.30;;;;;;5045595;28;20486;-81
2024/01/01 10:54:31;;;;;;;5.65;3.15;;;-8.90;90.30;;;;;;5033220;28;20483;-81
2024/01/01 10:57:22;;;;;;;3.63;2.17;;;-8.90;90.20;;;;;;5038414;28;20013;-82
2024/01/01 11:00:17;;;;;;;4.20;2.60;;;-8.90;90.20;;;;;;5036372;28;20025;-82
2024/01/01 11:02:43;;;;;;;6.03;2.85;;;-9.00;90.30;;;;;;5011277;28;20033;-82
2024/01/01 11:05:11;;;;;;;4.15;2.75;;;-9.10;90.30;;;;;;5003746;28;20033;-82
2024/01/01 11:07:52;;;;;;;6.07;3.65;;;-9.10;90.60;;;;;;5024753;28;20493;-82
2024/01/01 11:10:37;;;;;;;3.63;2.15;;;-9.10;90.60;;;;;;5018094;28;20029;-81
2024/01/01 11:13:04;;;;;;;6.20;3.15;;;-9.10;90.70;;;;;;5044625;28;20064;-81
2024/01/01 11:15:48;;;;;;;4.75;2.97;;;-9.10;90.80;;;;;;5043230;28;20128;-81
2024/01/01 11:18:15;;;;;;;4.28;2.25;;;-9.10;90.80;;;;;;4998123;28;20451;-82
2024/01/01 11:20:56;;;;;;;;;;;-9.00;90.90;;;;;;5019562;28;20088;-82
2024/01/01 11:23:40;;;;;;;5.38;2.67;;;-9.00;91.00;;;;;;5035619;28;19940;-80
2024/01/01 11:26:40;;;;;;;3.15;1.60;;;-9.00;91.00;;;;;;5024379;28;20018;-83
2024/01/01 11:29:27;;;;;;;6.20;3.10;;;-8.90;91.00;;;;;;5038285;28;20060;-84
2024/01/01 11:32:05;;;;;;;7.82;3.33;;;-8.90;90.90;;;;;;5036719;28;20051;-80
2024/01/01 11:34:30;;;;;;;4.20;2.97;;;-8.80;90.90;;;;;;5037922;28;20022;-81
2024/01/01 11:36:56;;;;;;;4.88;2.45;;;-8.90;90.70;;;;;;5036779;28;20501;-81
2024/01/01 11:39:24;;;;;;;5.88;3.03;;;-8.90;90.60;;;;;;5036175;28;20088;-82
2024/01/01 11:41:50;;;;;;;6.25;4.07;;;-9.10;90.50;;;;;;5018762;28;20036;-81
2024/01/01 11:44:23;;;;;;;5.13;3.28;;;-9.20;90.70;;;;;;5036062;28;20038;-82
2024/01/01 11:46:51;;;;;;;6.75;3.78;;;-9.20;90.70;;;;;;5038877;28;20431;-82
2024/01/01 11:49:17;;;;;;;5.45;3.03;;;-9.40;90.60;;;;;;5044914;28;20025;-84
2024/01/01 11:51:57;;;;;;;5.43;3.78;;;-9.50;90.70;;;;;;5038893;28;20067;-81
2024/01/01 11:54:27;;;;;;;8.88;3.95;;;-9.60;90.80;;;;;;5017871;28;20048;-82
2024/01/01 11:56:56;;;;;;;6.95;4.22;;;-9.60;90.80;;;;;;5027029;28;20014;-81
2024/01/01 11:59:24;;;;;;;8.38;4.10;;;-9.70;90.80;;;;;;5018070;28;20025;-82
2024/01/01 12:01:50;;;;;;;18.33;4.55;;;-9.70;90.80;;;;;;5026261;28;20370;-82
2024/01/01 12:04:17;;;;;;;5.90;3.08;;;-9.80;90.90;;;;;;5034564;28;20033;-83
2024/01/01 12:06:49;;;;;;;6.80;3.80;;;-9.80;91.00;;;;;;5034486;28;20029;-83
2024/01/01 12:09:15;;;;;;;5.85;3.60;;;-9.90;91.00;;;;;;5034897;28;20088;-83
2024/01/01 12:11:44;;;;;;;6.97;4.10;;;-9.90;91.10;;;;;;5035918;28;20060;-81
2024/01/01 12:14:10;;;;;;;7.28;3.95;;;-9.90;91.20;;;;;;5029066;28;20036;-81
2024/01/01 12:16:37;;;;;;;5.40;3.58;;;-9.90;91.30;;;;;;5016938;28;20034;-82
2024/01/01 12:19:09;;;;;;;6.25;3.88;;;-9.90;91.20;;;;;;5034878;28;20021;-83
2024/01/01 12:21:45;;;;;;;5.32;3.28;;;-10.00;91.00;;;;;;5036759;28;20025;-83
2024/01/01 12:24:15;;;;;;;6.97;4.63;;;-10.00;91.00;;;;;;5035543;28;20395;-82
2024/01/01 12:26:43;;;;;;;5.68;4.60;;;-9.90;91.00;;;;;;5034794;28;20072;-82
2024/01/01 12:29:13;;;;;;;7.18;4.13;;;-9.90;91.00;;;;;;5035346;28;20029;-84
2024/01/01 12:31:40;;;;;;;11.15;5.03;;;-9.80;91.10;;;;;;5035094;28;20025;-83
2024/01/01 12:34:12;;;;;;;7.47;4.60;;;-9.80;91.20;;;;;;5044458;28;20086;-82
2024/01/01 12:36:38;;;;;;;7.63;4.05;;;-9.70;91.30;;;;;;5007593;28;20018;-83
2024/01/01 12:39:04;;;;;;;7.00;4.35;;;-9.70;91.30;;;;;;5035921;28;20056;-81
2024/01/01 12:41:31;;;;;;;8.02;3.78;;;-9.70;91.20;;;;;;5017090;28;20394;-81